createdAt,value
2024-01-04T00:02:15.217Z,5.10
2024-01-04T00:04:42.023Z,5.00
2024-01-04T00:07:08.603Z,5.05
2024-01-04T00:09:35.048Z,4.97
2024-01-04T00:12:01.797Z,5.43
2024-01-04T00:14:28.310Z,5.68
2024-01-04T00:16:54.740Z,5.55
2024-01-04T00:19:21.366Z,5.40
2024-01-04T00:21:47.947Z,5.30
2024-01-04T00:24:14.539Z,5.07
2024-01-04T00:26:41.076Z,5.40
2024-01-04T00:29:07.621Z,5.65
2024-01-04T00:31:34.156Z,5.63
2024-01-04T00:34:00.814Z,5.97
2024-01-04T00:36:27.418Z,5.20
2024-01-04T00:38:53.902Z,5.97
2024-01-04T00:41:20.303Z,6.32
2024-01-04T00:43:46.728Z,6.30
2024-01-04T00:46:13.224Z,5.90
2024-01-04T00:48:39.891Z,6.00
2024-01-04T00:51:06.490Z,6.00
2024-01-04T00:53:33.060Z,5.85
2024-01-04T00:55:59.522Z,5.47
2024-01-04T00:58:25.993Z,5.72
2024-01-04T01:00:52.449Z,4.53
2024-01-04T01:03:19.101Z,5.55
2024-01-04T01:05:45.753Z,5.80
2024-01-04T01:08:12.359Z,5.70
2024-01-04T01:10:38.779Z,5.63
2024-01-04T01:13:05.227Z,5.95
2024-01-04T01:15:31.701Z,6.45
2024-01-04T01:17:58.312Z,6.00
2024-01-04T01:20:27.334Z,6.18
2024-01-04T01:22:53.779Z,5.78
2024-01-04T01:25:20.276Z,6.25
2024-01-04T01:27:46.710Z,6.25
2024-01-04T01:30:13.428Z,5.80
2024-01-04T01:32:42.121Z,5.75
2024-01-04T01:35:10.075Z,6.20
2024-01-04T01:37:36.651Z,5.60
2024-01-04T01:40:03.707Z,5.75
2024-01-04T01:42:30.149Z,5.60
2024-01-04T01:44:56.640Z,6.20
2024-01-04T01:47:25.556Z,5.88
2024-01-04T01:49:52.193Z,5.90
2024-01-04T01:52:18.947Z,5.80
2024-01-04T01:54:47.707Z,6.10
2024-01-04T01:57:14.538Z,6.68
2024-01-04T01:59:41.196Z,5.70
2024-01-04T02:02:08.387Z,4.60
2024-01-04T02:04:34.919Z,5.18
2024-01-04T02:07:02.059Z,5.20
2024-01-04T02:09:29.280Z,5.20
2024-01-04T02:12:06.243Z,5.18
2024-01-04T02:14:33.263Z,5.50
2024-01-04T02:16:59.774Z,5.40
2024-01-04T02:19:27.978Z,5.63
2024-01-04T02:21:54.649Z,5.60
2024-01-04T02:24:21.093Z,5.80
2024-01-04T02:26:47.600Z,5.60
2024-01-04T02:29:14.089Z,5.60
2024-01-04T02:31:40.619Z,6.22
2024-01-04T02:34:07.250Z,6.25
2024-01-04T02:36:33.810Z,6.10
2024-01-04T02:39:00.399Z,5.85
2024-01-04T02:41:26.974Z,6.13
2024-01-04T02:43:53.404Z,5.85
2024-01-04T02:46:19.928Z,6.00
2024-01-04T02:48:46.556Z,6.05
2024-01-04T02:51:13.164Z,5.97
2024-01-04T02:53:39.664Z,6.15
2024-01-04T02:56:06.294Z,6.03
2024-01-04T02:58:32.750Z,6.57
2024-01-04T03:00:59.241Z,6.18
2024-01-04T03:03:25.743Z,6.57
2024-01-04T03:05:52.442Z,6.90
2024-01-04T03:08:19.018Z,7.00
2024-01-04T03:10:45.465Z,7.07
2024-01-04T03:13:11.972Z,7.00
2024-01-04T03:15:38.460Z,6.93
2024-01-04T03:18:05.182Z,7.82
2024-01-04T03:20:31.738Z,8.15
2024-01-04T03:22:58.396Z,7.90
2024-01-04T03:25:24.883Z,7.45
2024-01-04T03:27:51.421Z,7.38
2024-01-04T03:30:18.002Z,7.40
2024-01-04T03:32:44.667Z,7.60
2024-01-04T03:35:11.276Z,8.00
2024-01-04T03:37:37.746Z,8.45
2024-01-04T03:40:04.534Z,8.63
2024-01-04T03:42:33.659Z,8.30
2024-01-04T03:45:00.238Z,7.90
2024-01-04T03:47:27.694Z,7.82
2024-01-04T03:49:54.253Z,8.05
2024-01-04T03:52:20.779Z,7.57
2024-01-04T03:54:47.231Z,7.60
2024-01-04T03:57:13.754Z,7.05
2024-01-04T03:59:40.380Z,7.53
2024-01-04T04:02:06.943Z,7.10
2024-01-04T04:04:33.351Z,7.20
2024-01-04T04:06:59.827Z,6.40
2024-01-04T04:09:27.291Z,6.57
2024-01-04T04:11:53.809Z,6.20
2024-01-04T04:14:20.277Z,6.47
2024-01-04T04:16:46.740Z,6.25
2024-01-04T04:19:13.476Z,6.38
2024-01-04T04:21:40.057Z,6.20
2024-01-04T04:24:07.004Z,6.18
2024-01-04T04:26:33.787Z,6.75
2024-01-04T04:29:00.252Z,6.30
2024-01-04T04:31:26.838Z,6.40
2024-01-04T04:33:53.545Z,6.47
2024-01-04T04:36:20.174Z,6.75
2024-01-04T04:38:46.747Z,6.80
2024-01-04T04:41:13.364Z,6.57
2024-01-04T04:43:39.878Z,6.60
2024-01-04T04:46:11.537Z,5.80
2024-01-04T04:48:38.346Z,6.68
2024-01-04T04:51:05.024Z,5.72
2024-01-04T04:53:31.690Z,6.10
2024-01-04T04:55:58.152Z,6.57
2024-01-04T04:58:24.627Z,6.65
2024-01-04T05:00:51.098Z,6.97
2024-01-04T05:03:17.732Z,6.35
2024-01-04T05:05:44.348Z,6.80
2024-01-04T05:08:10.869Z,6.95
2024-01-04T05:10:37.349Z,6.63
2024-01-04T05:13:03.897Z,7.05
2024-01-04T05:15:30.343Z,6.78
2024-01-04T05:17:57.138Z,6.47
2024-01-04T05:20:23.698Z,6.57
2024-01-04T05:22:50.200Z,6.43
2024-01-04T05:25:16.661Z,6.50
2024-01-04T05:27:43.142Z,6.28
2024-01-04T05:30:11.529Z,6.50
2024-01-04T05:32:38.586Z,6.60
2024-01-04T05:35:05.916Z,6.80
2024-01-04T05:37:32.463Z,7.00
2024-01-04T05:40:01.108Z,6.85
2024-01-04T05:42:28.050Z,6.57
2024-01-04T05:44:54.566Z,6.68
2024-01-04T05:47:21.078Z,6.90
2024-01-04T05:49:47.578Z,6.72
2024-01-04T05:52:14.177Z,6.97
2024-01-04T05:54:40.660Z,6.80
2024-01-04T05:57:07.270Z,6.72
2024-01-04T05:59:33.735Z,7.20
2024-01-04T06:02:01.277Z,7.22
2024-01-04T06:04:27.692Z,7.53
2024-01-04T06:06:57.040Z,7.35
2024-01-04T06:09:23.739Z,7.72
2024-01-04T06:11:52.389Z,7.38
2024-01-04T06:14:19.663Z,7.90
2024-01-04T06:16:46.284Z,7.70
2024-01-04T06:19:12.865Z,7.40
2024-01-04T06:21:39.682Z,6.78
2024-01-04T06:24:06.213Z,7.30
2024-01-04T06:26:32.670Z,6.90
2024-01-04T06:28:59.112Z,7.55
2024-01-04T06:31:25.685Z,7.45
2024-01-04T06:33:52.322Z,7.30
2024-01-04T06:36:19.026Z,7.85
2024-01-04T06:38:45.580Z,7.35
2024-01-04T06:41:13.353Z,7.78
2024-01-04T06:43:39.963Z,7.63
2024-01-04T06:46:06.605Z,7.55
2024-01-04T06:48:33.466Z,7.05
2024-01-04T06:51:00.291Z,7.00
2024-01-04T06:53:27.282Z,7.70
2024-01-04T06:55:53.736Z,7.50
2024-01-04T06:58:20.204Z,7.40
2024-01-04T07:00:46.743Z,7.05
2024-01-04T07:03:13.418Z,6.80
2024-01-04T07:05:40.220Z,6.85
2024-01-04T07:08:06.976Z,6.80
2024-01-04T07:10:33.471Z,7.45
2024-01-04T07:12:59.980Z,7.30
2024-01-04T07:15:26.652Z,6.90
2024-01-04T07:17:53.656Z,7.00
2024-01-04T07:20:23.575Z,7.78
2024-01-04T07:22:53.661Z,7.40
2024-01-04T07:25:20.704Z,7.13
2024-01-04T07:27:49.945Z,7.47
2024-01-04T07:30:17.051Z,7.60
2024-01-04T07:32:43.693Z,8.00
2024-01-04T07:35:16.937Z,7.47
2024-01-04T07:37:44.987Z,7.68
2024-01-04T07:40:11.988Z,7.93
2024-01-04T07:42:38.559Z,7.38
2024-01-04T07:45:07.077Z,8.00
2024-01-04T07:47:34.447Z,7.97
2024-01-04T07:50:01.173Z,7.50
2024-01-04T07:52:27.707Z,7.90
2024-01-04T07:54:54.236Z,7.70
2024-01-04T07:57:20.803Z,8.15
2024-01-04T07:59:47.324Z,7.40
2024-01-04T08:02:13.855Z,7.88
2024-01-04T08:04:40.303Z,7.45
2024-01-04T08:07:08.865Z,8.18
2024-01-04T08:09:38.892Z,8.13
2024-01-04T08:12:06.304Z,8.30
2024-01-04T08:14:34.655Z,8.40
2024-01-04T08:17:01.440Z,8.35
2024-01-04T08:19:28.240Z,7.88
2024-01-04T08:21:54.970Z,8.00
2024-01-04T08:24:21.433Z,7.95
2024-01-04T08:26:48.005Z,7.65
2024-01-04T08:29:14.907Z,7.95
2024-01-04T08:31:41.443Z,8.20
2024-01-04T08:34:08.070Z,7.65
2024-01-04T08:36:37.112Z,7.85
2024-01-04T08:39:04.830Z,7.75
2024-01-04T08:41:34.604Z,7.95
2024-01-04T08:44:01.040Z,7.57
2024-01-04T08:46:27.589Z,8.02
2024-01-04T08:48:54.176Z,7.53
2024-01-04T08:51:20.930Z,7.45
2024-01-04T08:53:47.967Z,8.60
2024-01-04T08:56:15.444Z,8.20
2024-01-04T08:58:41.992Z,8.68
2024-01-04T09:01:08.531Z,8.32
2024-01-04T09:03:35.109Z,9.43
2024-01-04T09:06:01.687Z,9.20
2024-01-04T09:08:28.210Z,7.97
2024-01-04T09:10:54.804Z,8.07
2024-01-04T09:13:27.421Z,8.02
2024-01-04T09:15:53.913Z,9.50
2024-01-04T09:18:21.051Z,9.57
2024-01-04T09:20:48.406Z,9.10
2024-01-04T09:23:14.941Z,9.43
2024-01-04T09:25:41.637Z,9.75
2024-01-04T09:28:08.172Z,10.15
2024-01-04T09:30:46.039Z,8.98
2024-01-04T09:33:13.215Z,8.55
2024-01-04T09:35:39.784Z,8.32
2024-01-04T09:38:10.071Z,8.32
2024-01-04T09:40:36.563Z,8.48
2024-01-04T09:43:05.230Z,9.73
2024-01-04T09:45:34.167Z,11.43
2024-01-04T09:48:07.621Z,9.88
2024-01-04T09:50:39.785Z,17.77
2024-01-04T09:53:13.029Z,8.88
2024-01-04T09:55:41.753Z,10.70
2024-01-04T09:58:13.475Z,9.10
2024-01-04T10:00:39.949Z,9.05
2024-01-04T10:03:07.160Z,8.63
2024-01-04T10:05:34.915Z,8.40
2024-01-04T10:08:36.849Z,9.90
2024-01-04T10:11:07.398Z,9.18
2024-01-04T10:13:34.335Z,9.60
2024-01-04T10:16:06.818Z,8.80
2024-01-04T10:18:35.689Z,8.40
2024-01-04T10:21:04.789Z,10.02
2024-01-04T10:23:32.152Z,9.43
2024-01-04T10:26:08.714Z,15.65
2024-01-04T10:28:36.951Z,16.38
2024-01-04T10:31:04.577Z,9.18
2024-01-04T10:33:31.196Z,10.40
2024-01-04T10:36:07.380Z,12.70
2024-01-04T10:38:34.637Z,15.88
2024-01-04T10:41:04.086Z,10.73
2024-01-04T10:43:31.514Z,18.17
2024-01-04T10:46:06.896Z,17.15
2024-01-04T10:48:33.944Z,18.23
2024-01-04T10:51:03.803Z,16.70
2024-01-04T10:53:31.772Z,12.32
2024-01-04T10:55:58.502Z,15.23
2024-01-04T10:58:25.820Z,14.95
2024-01-04T11:00:53.227Z,10.50
2024-01-04T11:03:20.500Z,9.32
2024-01-04T11:05:49.728Z,9.00
2024-01-04T11:08:16.700Z,8.60
2024-01-04T11:10:46.153Z,8.50
2024-01-04T11:13:12.883Z,8.87
2024-01-04T11:15:39.433Z,9.05
2024-01-04T11:18:23.161Z,18.08
2024-01-04T11:20:55.916Z,9.07
2024-01-04T11:23:43.636Z,7.88
2024-01-04T11:26:18.680Z,7.18
2024-01-04T11:28:45.898Z,7.95
2024-01-04T11:31:12.666Z,7.93
2024-01-04T11:33:40.491Z,7.50
2024-01-04T11:36:07.196Z,7.60
2024-01-04T11:38:36.212Z,8.05
2024-01-04T11:41:02.989Z,7.63
2024-01-04T11:43:37.699Z,7.88
2024-01-04T11:46:22.833Z,7.43
2024-01-04T11:48:58.632Z,7.13
2024-01-04T11:51:42.613Z,7.10
2024-01-04T11:54:12.482Z,7.63
2024-01-04T11:56:39.231Z,7.72
2024-01-04T11:59:09.438Z,7.57
2024-01-04T12:01:40.317Z,7.30
2024-01-04T12:04:14.042Z,8.23
2024-01-04T12:06:44.717Z,7.20
2024-01-04T12:09:11.834Z,6.80
2024-01-04T12:11:41.014Z,7.18
2024-01-04T12:14:08.250Z,6.93
2024-01-04T12:16:35.523Z,6.95
2024-01-04T12:19:11.472Z,7.20
2024-01-04T12:21:38.108Z,7.45
2024-01-04T12:24:04.854Z,7.32
2024-01-04T12:26:31.576Z,6.97
2024-01-04T12:28:58.346Z,7.30
2024-01-04T12:31:28.043Z,7.10
2024-01-04T12:33:55.773Z,7.30
2024-01-04T12:36:23.639Z,7.15
2024-01-04T12:38:55.022Z,7.38
2024-01-04T12:41:25.446Z,6.90
2024-01-04T12:46:22.497Z,6.50
2024-01-04T12:48:55.370Z,7.15
2024-01-04T12:51:28.416Z,6.90
2024-01-04T12:53:55.135Z,9.75
2024-01-04T12:56:21.904Z,9.05
2024-01-04T12:58:48.968Z,7.22
2024-01-04T13:01:15.658Z,7.90
2024-01-04T13:03:42.465Z,7.90
2024-01-04T13:06:10.370Z,7.00
2024-01-04T13:08:36.982Z,8.93
2024-01-04T13:11:06.683Z,11.30
2024-01-04T13:13:33.805Z,11.27
2024-01-04T13:16:02.438Z,10.43
2024-01-04T13:18:29.110Z,8.15
2024-01-04T13:20:55.848Z,7.05
2024-01-04T13:23:22.653Z,7.15
2024-01-04T13:25:50.295Z,7.65
2024-01-04T13:28:17.939Z,7.80
2024-01-04T13:30:44.920Z,7.90
2024-01-04T13:33:11.647Z,7.45
2024-01-04T13:35:38.269Z,7.82
2024-01-04T13:38:12.029Z,8.00
2024-01-04T13:40:38.590Z,7.38
2024-01-04T13:43:05.195Z,8.32
2024-01-04T13:45:32.023Z,7.75
2024-01-04T13:47:58.757Z,7.93
2024-01-04T13:50:30.366Z,7.75
2024-01-04T13:52:57.107Z,7.70
2024-01-04T13:55:23.584Z,7.75
2024-01-04T13:57:50.787Z,8.65
2024-01-04T14:00:18.293Z,7.50
2024-01-04T14:02:44.845Z,7.43
2024-01-04T14:05:11.567Z,7.65
2024-01-04T14:07:38.106Z,8.20
2024-01-04T14:10:09.005Z,8.52
2024-01-04T14:12:35.511Z,8.75
2024-01-04T14:15:17.432Z,8.38
2024-01-04T14:17:44.061Z,7.47
2024-01-04T14:20:11.694Z,6.90
2024-01-04T14:22:38.293Z,7.30
2024-01-04T14:25:11.173Z,6.78
2024-01-04T14:27:37.719Z,7.07
2024-01-04T14:30:06.396Z,25.55
2024-01-04T14:32:33.895Z,24.88
2024-01-04T14:35:07.189Z,9.30
2024-01-04T14:37:36.901Z,10.13
2024-01-04T14:40:03.691Z,7.88
2024-01-04T14:42:30.270Z,7.78
2024-01-04T14:44:56.809Z,7.13
2024-01-04T14:47:23.424Z,7.00
2024-01-04T14:49:49.988Z,7.72
2024-01-04T14:52:16.624Z,7.82
2024-01-04T14:54:49.314Z,7.10
2024-01-04T14:57:15.890Z,8.10
2024-01-04T14:59:42.381Z,8.05
2024-01-04T15:02:08.920Z,7.00
2024-01-04T15:04:35.450Z,6.70
2024-01-04T15:07:05.393Z,7.47
2024-01-04T15:09:33.200Z,9.05
2024-01-04T15:11:59.694Z,7.80
2024-01-04T15:14:26.235Z,7.90
2024-01-04T15:16:53.504Z,7.40
2024-01-04T15:19:20.492Z,8.38
2024-01-04T15:21:47.235Z,7.50
2024-01-04T15:24:13.994Z,8.02
2024-01-04T15:26:40.576Z,7.25
2024-01-04T15:29:07.055Z,8.43
2024-01-04T15:31:33.507Z,8.52
2024-01-04T15:34:01.523Z,10.77
2024-01-04T15:36:28.702Z,8.48
2024-01-04T15:38:56.305Z,8.30
2024-01-04T15:41:22.951Z,7.95
2024-01-04T15:43:49.921Z,7.00
2024-01-04T15:46:17.144Z,7.57
2024-01-04T15:48:43.877Z,7.38
2024-01-04T15:51:15.172Z,7.60
2024-01-04T15:53:41.847Z,7.72
2024-01-04T15:56:08.381Z,7.68
2024-01-04T15:58:34.893Z,8.00
2024-01-04T16:01:01.412Z,7.82
2024-01-04T16:03:28.139Z,7.70
2024-01-04T16:05:54.721Z,8.48
2024-01-04T16:08:21.220Z,7.43
2024-01-04T16:10:47.695Z,7.38
2024-01-04T16:13:14.176Z,8.07
2024-01-04T16:15:40.719Z,16.88
2024-01-04T16:18:07.540Z,13.30
2024-01-04T16:20:37.487Z,66.57
2024-01-04T16:23:05.307Z,12.25
2024-01-04T16:25:32.861Z,10.20
2024-01-04T16:27:59.686Z,8.75
2024-01-04T16:30:26.336Z,8.45
2024-01-04T16:32:53.159Z,7.78
2024-01-04T16:35:20.106Z,11.38
2024-01-04T16:37:46.653Z,9.90
2024-01-04T16:40:14.229Z,12.63
2024-01-04T16:42:41.177Z,8.60
2024-01-04T16:45:07.928Z,9.52
2024-01-04T16:47:34.502Z,11.98
2024-01-04T16:52:27.409Z,9.45
2024-01-04T16:54:54.072Z,9.32
2024-01-04T16:57:20.638Z,10.27
2024-01-04T16:59:47.207Z,8.07
2024-01-04T17:02:13.788Z,10.27
2024-01-04T17:04:40.461Z,9.93
2024-01-04T17:07:07.031Z,10.57
2024-01-04T17:09:33.684Z,10.68
2024-01-04T17:12:02.020Z,10.73
2024-01-04T17:14:28.645Z,8.35
2024-01-04T17:16:56.642Z,8.50
2024-01-04T17:19:23.198Z,9.88
2024-01-04T17:21:49.764Z,9.05
2024-01-04T17:24:16.576Z,10.27
2024-01-04T17:26:43.062Z,9.13
2024-01-04T17:29:09.555Z,8.30
2024-01-04T17:31:36.348Z,9.15
2024-01-04T17:34:03.293Z,8.00
2024-01-04T17:36:35.944Z,7.40
2024-01-04T17:39:09.866Z,7.60
2024-01-04T17:41:36.723Z,7.90
2024-01-04T17:44:04.666Z,7.82
2024-01-04T17:46:31.197Z,7.15
2024-01-04T17:48:58.093Z,7.25
2024-01-04T17:51:24.817Z,7.05
2024-01-04T17:53:51.570Z,7.00
2024-01-04T17:56:18.096Z,7.57
2024-01-04T17:58:45.053Z,7.43
2024-01-04T18:01:14.207Z,7.07
2024-01-04T18:03:41.440Z,6.53
2024-01-04T18:06:08.109Z,6.40
2024-01-04T18:08:34.728Z,6.47
2024-01-04T18:11:01.262Z,7.05
2024-01-04T18:13:29.609Z,6.90
2024-01-04T18:15:56.171Z,7.10
2024-01-04T18:18:22.824Z,7.88
2024-01-04T18:20:49.825Z,7.63
2024-01-04T18:23:16.443Z,8.15
2024-01-04T18:25:43.142Z,6.97
2024-01-04T18:28:10.115Z,7.50
2024-01-04T18:30:38.083Z,6.50
2024-01-04T18:33:05.078Z,6.93
2024-01-04T18:35:31.778Z,7.18
2024-01-04T18:37:58.327Z,7.75
2024-01-04T18:40:25.082Z,6.95
2024-01-04T18:42:51.657Z,8.18
2024-01-04T18:45:18.218Z,6.68
2024-01-04T18:47:44.899Z,7.13
2024-01-04T18:50:11.871Z,23.48
2024-01-04T18:52:38.520Z,14.05
2024-01-04T18:55:06.664Z,17.92
2024-01-04T18:57:33.289Z,15.52
2024-01-04T18:59:59.892Z,27.58
2024-01-04T19:02:26.410Z,29.50
2024-01-04T19:04:53.616Z,16.08
2024-01-04T19:07:20.140Z,56.70
2024-01-04T19:09:46.670Z,16.92
2024-01-04T19:12:13.341Z,10.90
2024-01-04T19:14:39.845Z,10.57
2024-01-04T19:17:06.842Z,10.32
2024-01-04T19:19:33.412Z,10.55
2024-01-04T19:22:00.013Z,9.25
2024-01-04T19:24:26.615Z,29.33
2024-01-04T19:26:53.299Z,14.45
2024-01-04T19:29:19.847Z,10.70
2024-01-04T19:31:46.841Z,9.70
2024-01-04T19:34:13.474Z,8.40
2024-01-04T19:36:40.284Z,9.20
2024-01-04T19:39:08.280Z,7.90
2024-01-04T19:41:35.047Z,6.82
2024-01-04T19:44:01.514Z,6.30
2024-01-04T19:46:28.159Z,7.80
2024-01-04T19:48:54.815Z,7.10
2024-01-04T19:51:23.036Z,7.20
2024-01-04T19:53:50.636Z,6.90
2024-01-04T19:56:17.213Z,6.50
2024-01-04T19:58:44.465Z,6.47
2024-01-04T20:01:11.185Z,7.07
2024-01-04T20:03:37.913Z,7.10
2024-01-04T20:06:04.903Z,7.22
2024-01-04T20:08:31.460Z,6.78
2024-01-04T20:11:01.230Z,6.32
2024-01-04T20:13:28.879Z,6.10
2024-01-04T20:15:55.391Z,6.50
2024-01-04T20:18:25.437Z,6.00
2024-01-04T20:20:53.850Z,6.15
2024-01-04T20:23:20.598Z,6.70
2024-01-04T20:25:47.133Z,6.25
2024-01-04T20:28:13.796Z,6.35
2024-01-04T20:30:40.691Z,6.07
2024-01-04T20:33:07.524Z,10.07
2024-01-04T20:35:34.150Z,14.90
2024-01-04T20:38:00.671Z,14.35
2024-01-04T20:40:27.154Z,9.63
2024-01-04T20:42:53.663Z,10.38
2024-01-04T20:45:21.174Z,8.65
2024-01-04T20:47:48.723Z,7.10
2024-01-04T20:50:15.358Z,7.53
2024-01-04T20:52:41.933Z,6.80
2024-01-04T20:55:08.477Z,6.82
2024-01-04T20:57:35.488Z,6.22
2024-01-04T21:00:02.138Z,7.47
2024-01-04T21:02:28.726Z,7.25
2024-01-04T21:04:55.182Z,9.32
2024-01-04T21:07:21.730Z,8.18
2024-01-04T21:09:48.218Z,14.02
2024-01-04T21:12:14.846Z,7.80
2024-01-04T21:14:43.032Z,9.23
2024-01-04T21:17:09.582Z,11.20
2024-01-04T21:19:36.237Z,12.18
2024-01-04T21:22:02.843Z,26.20
2024-01-04T21:24:29.358Z,10.63
2024-01-04T21:26:57.262Z,8.10
2024-01-04T21:29:23.777Z,23.58
2024-01-04T21:31:50.659Z,16.73
2024-01-04T21:34:17.264Z,12.30
2024-01-04T21:36:44.213Z,44.22
2024-01-04T21:39:12.841Z,47.05
2024-01-04T21:41:43.061Z,74.55
2024-01-04T21:44:09.522Z,58.38
2024-01-04T21:46:36.014Z,23.83
2024-01-04T21:49:02.588Z,47.95
2024-01-04T21:51:29.225Z,33.70
2024-01-04T21:53:55.826Z,39.97
2024-01-04T21:56:23.959Z,37.78
2024-01-04T21:58:51.002Z,32.13
2024-01-04T22:01:24.164Z,25.55
2024-01-04T22:03:51.040Z,53.92
2024-01-04T22:06:19.643Z,31.23
2024-01-04T22:08:46.791Z,13.75
2024-01-04T22:11:13.349Z,8.40
2024-01-04T22:13:39.898Z,8.18
2024-01-04T22:16:06.536Z,8.35
2024-01-04T22:18:33.216Z,7.65
2024-01-04T22:20:59.845Z,7.40
2024-01-04T22:23:26.395Z,6.97
2024-01-04T22:25:52.936Z,7.38
2024-01-04T22:28:19.760Z,6.38
2024-01-04T22:30:46.436Z,5.90
2024-01-04T22:33:14.013Z,7.78
2024-01-04T22:35:40.672Z,6.70
2024-01-04T22:38:07.326Z,7.55
2024-01-04T22:40:33.833Z,6.72
2024-01-04T22:43:00.318Z,7.93
2024-01-04T22:45:29.573Z,6.40
2024-01-04T22:47:56.348Z,6.18
2024-01-04T22:50:23.012Z,5.43
2024-01-04T22:52:49.617Z,8.30
2024-01-04T22:55:16.224Z,10.20
2024-01-04T22:57:42.860Z,6.20
2024-01-04T23:00:13.762Z,6.22
2024-01-04T23:02:40.672Z,6.53
2024-01-04T23:05:07.967Z,5.80
2024-01-04T23:07:34.558Z,5.88
2024-01-04T23:10:01.153Z,5.95
2024-01-04T23:12:27.724Z,5.60
2024-01-04T23:14:54.354Z,5.75
2024-01-04T23:17:20.921Z,5.45
2024-01-04T23:19:48.141Z,4.78
2024-01-04T23:22:14.933Z,5.40
2024-01-04T23:24:42.729Z,6.05
2024-01-04T23:27:09.794Z,5.38
2024-01-04T23:29:36.805Z,6.45
2024-01-04T23:32:03.504Z,6.40
2024-01-04T23:34:30.118Z,6.45
2024-01-04T23:36:56.623Z,5.35
2024-01-04T23:39:23.144Z,5.60
2024-01-04T23:41:49.634Z,5.38
2024-01-04T23:44:16.204Z,5.03
2024-01-04T23:46:43.193Z,5.97
2024-01-04T23:49:13.095Z,5.40
2024-01-04T23:51:40.031Z,5.57
2024-01-04T23:54:09.623Z,5.38
2024-01-04T23:56:36.445Z,5.50
2024-01-04T23:59:03.246Z,5.57
